Time;durP1;ratioP1;P1;durP2;ratioP2;P2;SDS_P1;SDS_P2;PMS_P1;PMS_P2;Temp;Humidity;BMP_temperature;BMP_pressure;BME280_temperature;BME280_humidity;BME280_pressure;Samples;Min_cycle;Max_cycle;Signal;HPM_P1;HPM_P2
2022/12/17 13:10:50;;;;;;;31.40;25.33;;;6.10;24.70;;;;;;2614411;54;20415;-78
2022/12/17 13:29:36;;;;;;;32.10;25.70;;;3.00;38.60;;;;;;2614666;54;20930;-76
2022/12/17 13:36:02;;;;;;;36.70;25.00;;;2.00;54.40;;;;;;2614609;54;20390;-77
2022/12/17 13:41:54;;;;;;;35.40;26.87;;;3.60;43.50;;;;;;2615001;54;20423;-77
2022/12/17 13:47:42;;;;;;;32.73;25.93;;;2.60;43.10;;;;;;2614120;54;20358;-77
2022/12/17 13:57:15;;;;;;;44.70;27.93;;;2.30;54.80;;;;;;2614080;54;21038;-77
2022/12/17 14:03:10;;;;;;;38.50;27.63;;;2.10;52.30;;;;;;2615945;54;20386;-78
2022/12/17 14:08:58;;;;;;;35.07;23.80;;;0.70;82.10;;;;;;2615212;54;20924;-78
2022/12/17 14:21:14;;;;;;;41.97;24.30;;;0.00;99.90;;;;;;2615671;39;20765;-77
2022/12/17 14:24:18;;;;;;;41.40;26.00;;;-1.00;99.90;;;;;;2614529;54;20383;-77
2022/12/17 14:33:33;;;;;;;37.27;23.80;;;-1.30;99.90;;;;;;2613502;54;20382;-76
2022/12/17 14:52:13;;;;;;;44.93;27.47;;;-1.90;99.90;;;;;;2614454;54;20412;-78
2022/12/17 14:58:12;;;;;;;42.23;24.73;;;-2.00;99.90;;;;;;2614589;54;20446;-78
2022/12/17 15:01:12;;;;;;;42.37;25.90;;;-2.00;99.90;;;;;;2614972;39;20863;-78
2022/12/17 15:06:59;;;;;;;75.10;27.63;;;-2.20;99.90;;;;;;2615300;54;20993;-78
2022/12/17 15:12:50;;;;;;;38.30;24.83;;;-2.50;99.90;;;;;;2615908;54;20910;-78
2022/12/17 15:18:38;;;;;;;44.10;27.13;;;-2.80;99.90;;;;;;2615570;54;20948;-77
2022/12/17 15:24:26;;;;;;;39.97;26.17;;;-2.90;99.90;;;;;;2616074;54;20395;-76
2022/12/17 15:30:16;;;;;;;49.93;28.30;;;-3.00;99.90;;;;;;2616543;54;20145;-79
2022/12/17 15:36:04;;;;;;;42.63;24.40;;;-3.20;99.90;;;;;;2615462;39;20764;-75
2022/12/17 15:47:58;;;;;;;48.60;24.67;;;-3.40;99.90;;;;;;2615772;54;20387;-77
2022/12/17 15:53:47;;;;;;;51.10;28.23;;;-3.60;99.90;;;;;;2615827;46;20134;-77
2022/12/17 15:56:40;;;;;;;43.37;27.20;;;-3.60;99.90;;;;;;2615803;54;20963;-76
2022/12/17 15:59:06;;;;;;;46.43;26.97;;;-3.70;99.90;;;;;;2615667;54;21003;-76
2022/12/17 16:04:53;;;;;;;43.60;26.50;;;-3.80;99.90;;;;;;2615757;54;20262;-77
2022/12/17 16:10:41;;;;;;;48.70;28.30;;;-3.90;99.90;;;;;;2615215;39;21047;-76
2022/12/17 16:16:29;;;;;;;426.17;268.90;;;-4.20;99.90;;;;;;2615681;54;20170;-77
2022/12/17 16:22:18;;;;;;;160.53;96.00;;;-4.40;99.90;;;;;;2616028;39;20977;-77
2022/12/17 16:28:05;;;;;;;122.23;67.10;;;-4.40;99.90;;;;;;2615045;54;20142;-77
2022/12/17 16:33:53;;;;;;;74.30;41.47;;;-4.80;99.90;;;;;;2616059;54;20122;-77
2022/12/17 16:39:41;;;;;;;85.83;39.87;;;-4.80;99.90;;;;;;2615675;54;21317;-77
2022/12/17 16:45:28;;;;;;;72.37;40.97;;;-4.80;99.90;;;;;;2615816;54;20231;-77
2022/12/17 16:51:18;;;;;;;60.90;35.80;;;-4.80;99.90;;;;;;2615571;54;20162;-78
2022/12/17 17:01:11;;;;;;;59.30;30.60;;;-4.90;99.90;;;;;;2615639;54;20390;-78
2022/12/17 17:06:59;;;;;;;46.53;27.93;;;-5.20;99.90;;;;;;2615348;54;20470;-77
2022/12/17 17:12:50;;;;;;;46.83;32.70;;;-5.20;99.90;;;;;;2615677;54;20146;-77
2022/12/17 17:18:38;;;;;;;43.47;26.33;;;-5.10;99.90;;;;;;2616342;54;20383;-78
2022/12/17 17:24:26;;;;;;;50.73;31.17;;;-5.20;99.90;;;;;;2616471;54;20218;-76
2022/12/17 17:30:14;;;;;;;45.83;29.83;;;-5.50;99.90;;;;;;2616089;54;20407;-77
2022/12/17 17:42:47;;;;;;;57.17;28.70;;;-5.80;99.90;;;;;;2614404;54;20393;-78
2022/12/17 17:48:35;;;;;;;50.07;32.20;;;-5.90;99.90;;;;;;2613763;54;20153;-77
2022/12/17 17:54:21;;;;;;;47.57;30.30;;;-5.90;99.90;;;;;;2614251;39;20806;-78
2022/12/17 18:00:09;;;;;;;52.37;32.23;;;-6.20;99.90;;;;;;2613966;54;20170;-77
2022/12/17 18:06:02;;;;;;;65.00;36.60;;;-6.20;99.90;;;;;;2614193;54;20366;-77
2022/12/17 18:11:49;;;;;;;58.23;33.97;;;-6.20;99.90;;;;;;2614033;54;20355;-77
2022/12/17 18:17:36;;;;;;;64.20;34.43;;;-6.20;99.90;;;;;;2615127;54;20134;-77
2022/12/17 18:23:24;;;;;;;59.03;31.00;;;-6.20;99.90;;;;;;2614946;54;20162;-77
2022/12/17 18:29:17;;;;;;;58.47;35.33;;;-6.20;99.90;;;;;;2614896;54;20146;-76
2022/12/17 18:35:06;;;;;;;60.50;30.30;;;-6.40;99.90;;;;;;2615268;54;20383;-77
2022/12/17 18:40:54;;;;;;;62.67;38.87;;;-6.60;99.90;;;;;;2615432;54;20376;-78
2022/12/17 18:46:41;;;;;;;67.50;37.53;;;-6.60;99.90;;;;;;2613977;54;20126;-77
2022/12/17 18:52:29;;;;;;;70.60;40.63;;;-6.60;99.90;;;;;;2615573;39;20580;-77
2022/12/17 19:01:41;;;;;;;86.20;46.90;;;-6.70;99.90;;;;;;2615097;54;20370;-79
2022/12/17 19:07:28;;;;;;;87.33;47.43;;;-6.80;99.90;;;;;;2614366;54;20367;-78
2022/12/17 19:13:16;;;;;;;103.97;55.93;;;-6.90;99.90;;;;;;2615146;54;20134;-77
2022/12/17 19:19:04;;;;;;;84.80;47.00;;;-6.80;99.90;;;;;;2613646;54;20118;-77
2022/12/17 19:24:52;;;;;;;81.93;45.63;;;-6.70;99.90;;;;;;2615191;54;20383;-78
2022/12/17 19:30:40;;;;;;;83.63;44.67;;;-6.80;99.90;;;;;;2615294;54;20576;-77
2022/12/17 19:36:29;;;;;;;73.77;44.47;;;-6.90;99.90;;;;;;2616034;54;20138;-77
2022/12/17 19:42:23;;;;;;;71.63;40.20;;;-6.80;99.90;;;;;;2616574;39;20781;-77
2022/12/17 19:48:13;;;;;;;73.50;39.83;;;-6.90;99.90;;;;;;2615885;54;21014;-77
2022/12/17 19:54:01;;;;;;;86.27;45.30;;;-6.90;99.90;;;;;;2616174;39;20734;-77
2022/12/17 19:57:11;;;;;;;72.07;43.73;;;-7.10;99.90;;;;;;2615212;54;20375;-77
2022/12/17 19:59:37;;;;;;;75.50;40.20;;;-7.10;99.90;;;;;;2615879;54;20154;-77
2022/12/17 20:05:25;;;;;;;72.27;41.87;;;-7.10;99.90;;;;;;2615805;46;20394;-76
2022/12/17 20:17:24;;;;;;;71.10;40.00;;;-7.20;99.90;;;;;;2615833;54;20568;-78
2022/12/17 20:23:12;;;;;;;76.20;40.13;;;-7.30;99.90;;;;;;2616159;39;20814;-77
2022/12/17 20:26:16;;;;;;;79.57;47.80;;;-7.30;99.90;;;;;;2615911;54;20400;-77
2022/12/17 20:28:42;;;;;;;90.80;49.93;;;-7.40;99.90;;;;;;2615104;54;20702;-76
2022/12/17 20:34:29;;;;;;;80.43;49.80;;;-7.40;99.90;;;;;;2615803;54;20915;-76
2022/12/17 20:40:17;;;;;;;97.13;54.67;;;-7.50;99.90;;;;;;2615922;39;20516;-77
2022/12/17 20:46:08;;;;;;;92.30;51.50;;;-7.30;99.90;;;;;;2615861;54;20118;-78
2022/12/17 20:51:56;;;;;;;96.80;53.67;;;-7.20;99.90;;;;;;2615828;54;20371;-77
2022/12/17 21:01:43;;;;;;;88.30;47.87;;;-7.40;99.90;;;;;;2615839;46;20847;-77
2022/12/17 21:07:30;;;;;;;101.70;48.67;;;-7.30;99.90;;;;;;2615753;54;20551;-77
2022/12/17 21:19:26;;;;;;;81.97;50.03;;;-7.40;99.90;;;;;;2615149;54;20387;-77
2022/12/17 21:25:13;;;;;;;81.80;47.13;;;-7.40;99.90;;;;;;2615810;54;20375;-76
2022/12/17 21:31:02;;;;;;;90.73;46.47;;;-7.50;99.90;;;;;;2615480;54;20693;-77
2022/12/17 21:36:50;;;;;;;83.10;44.80;;;-7.50;99.90;;;;;;2615731;54;20359;-77
2022/12/17 21:48:44;;;;;;;90.77;49.80;;;-7.50;99.90;;;;;;2615487;54;20407;-78
2022/12/17 21:54:32;;;;;;;88.47;50.77;;;-7.50;99.90;;;;;;2615532;39;20200;-77
2022/12/17 21:57:13;;;;;;;94.67;50.40;;;-7.50;99.90;;;;;;2614579;54;20427;-77
2022/12/17 21:59:39;;;;;;;91.33;52.43;;;-7.60;99.90;;;;;;2613318;47;20271;-78
2022/12/17 22:05:27;;;;;;;106.93;56.10;;;-7.50;99.90;;;;;;2614989;54;20252;-77
2022/12/17 22:11:18;;;;;;;76.13;47.47;;;-7.40;99.90;;;;;;2615517;54;20129;-76
2022/12/17 22:17:05;;;;;;;94.87;52.80;;;-7.40;99.90;;;;;;2615131;54;20453;-77
2022/12/17 22:22:53;;;;;;;89.70;56.43;;;-7.50;99.90;;;;;;2615559;54;20728;-77
2022/12/17 22:28:43;;;;;;;86.80;51.30;;;-7.40;99.90;;;;;;2615444;54;20607;-77
2022/12/17 22:34:30;;;;;;;83.63;49.80;;;-7.50;99.90;;;;;;2615679;54;20971;-76
2022/12/17 22:40:21;;;;;;;78.13;48.30;;;-7.40;99.90;;;;;;2615568;54;20143;-77
2022/12/17 22:46:09;;;;;;;90.40;49.60;;;-7.40;99.90;;;;;;2615528;54;20399;-75
2022/12/17 22:51:56;;;;;;;95.13;50.60;;;-7.50;99.90;;;;;;2615397;54;20146;-75
2022/12/17 22:54:22;;;;;;;106.13;59.53;;;-7.50;99.90;;;;;;2614856;47;20519;-77
2022/12/17 22:56:48;;;;;;;96.73;55.07;;;-7.50;99.90;;;;;;2615556;54;20265;-78
2022/12/17 23:06:10;;;;;;;96.30;53.17;;;-7.60;99.90;;;;;;2615929;39;20873;-78
2022/12/17 23:12:49;;;;;;;82.47;53.20;;;-7.50;99.90;;;;;;2615618;54;20447;-77
2022/12/17 23:18:06;;;;;;;87.93;53.43;;;-7.70;99.90;;;;;;2613939;54;20394;-76
2022/12/17 23:23:55;;;;;;;96.93;57.77;;;-7.50;99.90;;;;;;2615289;54;20381;-79
2022/12/17 23:29:42;;;;;;;100.43;54.87;;;-7.80;99.90;;;;;;2615206;54;20486;-77
2022/12/17 23:35:30;;;;;;;116.27;55.70;;;-7.90;99.90;;;;;;2615695;54;20202;-76
2022/12/17 23:41:21;;;;;;;92.30;55.00;;;-7.90;99.90;;;;;;2617455;39;20604;-75
2022/12/17 23:47:09;;;;;;;93.10;54.00;;;-8.00;99.90;;;;;;2615926;54;20378;-76
2022/12/17 23:52:56;;;;;;;97.07;54.30;;;-8.10;99.90;;;;;;2617179;39;20508;-76
2022/12/17 23:58:45;;;;;;;114.07;57.47;;;-8.10;99.90;;;;;;2616520;54;20169;-76
